sensor_id;sensor_type;location;lat;lon;timestamp;pressure;altitude;pressure_sealevel;temperature;humidity
20628;BME280;10473;42.734;24.258;2023-11-19T08:06:26;91677.19;;;5.09;59.45
20628;BME280;10473;42.734;24.258;2023-11-19T08:08:54;91681.09;;;5.46;60.15
20628;BME280;10473;42.734;24.258;2023-11-19T08:11:22;91685.97;;;5.60;58.62
20628;BME280;10473;42.734;24.258;2023-11-19T08:13:49;91686.03;;;5.79;56.88
20628;BME280;10473;42.734;24.258;2023-11-19T08:16:17;91688.81;;;5.70;57.30
20628;BME280;10473;42.734;24.258;2023-11-19T08:18:45;91694.50;;;6.19;55.78
20628;BME280;10473;42.734;24.258;2023-11-19T08:21:12;91701.59;;;7.29;55.47
20628;BME280;10473;42.734;24.258;2023-11-19T08:23:43;91711.25;;;7.63;51.46
20628;BME280;10473;42.734;24.258;2023-11-19T08:26:10;91709.94;;;7.98;50.51
20628;BME280;10473;42.734;24.258;2023-11-19T08:28:38;91713.41;;;8.80;50.06
20628;BME280;10473;42.734;24.258;2023-11-19T08:31:06;91710.13;;;9.20;47.61
20628;BME280;10473;42.734;24.258;2023-11-19T08:33:33;91699.59;;;9.60;46.86
20628;BME280;10473;42.734;24.258;2023-11-19T08:36:01;91707.31;;;10.15;46.32
20628;BME280;10473;42.734;24.258;2023-11-19T08:38:30;91686.84;;;10.63;44.26
20628;BME280;10473;42.734;24.258;2023-11-19T08:40:59;91687.28;;;10.18;44.73
20628;BME280;10473;42.734;24.258;2023-11-19T08:43:27;91693.72;;;10.78;42.92
20628;BME280;10473;42.734;24.258;2023-11-19T08:45:57;91686.69;;;11.10;42.06
20628;BME280;10473;42.734;24.258;2023-11-19T08:48:26;91696.78;;;11.76;40.66
20628;BME280;10473;42.734;24.258;2023-11-19T08:50:54;91710.44;;;11.88;40.41
20628;BME280;10473;42.734;24.258;2023-11-19T08:53:22;91721.09;;;12.69;39.48
20628;BME280;10473;42.734;24.258;2023-11-19T08:55:50;91717.31;;;12.52;38.39
20628;BME280;10473;42.734;24.258;2023-11-19T08:58:19;91701.66;;;13.07;38.53
20628;BME280;10473;42.734;24.258;2023-11-19T09:00:46;91702.81;;;13.02;36.83
20628;BME280;10473;42.734;24.258;2023-11-19T09:03:14;91695.03;;;14.15;36.38
20628;BME280;10473;42.734;24.258;2023-11-19T09:05:42;91696.78;;;15.57;35.53
20628;BME280;10473;42.734;24.258;2023-11-19T09:08:09;91697.53;;;16.44;33.07
20628;BME280;10473;42.734;24.258;2023-11-19T09:10:38;91708.13;;;17.98;33.74
20628;BME280;10473;42.734;24.258;2023-11-19T09:13:06;91703.16;;;17.18;30.55
20628;BME280;10473;42.734;24.258;2023-11-19T09:15:35;91708.84;;;17.63;32.52
20628;BME280;10473;42.734;24.258;2023-11-19T09:18:03;91695.44;;;18.18;30.62
20628;BME280;10473;42.734;24.258;2023-11-19T09:20:30;91710.22;;;19.54;30.10
20628;BME280;10473;42.734;24.258;2023-11-19T09:23:05;91705.38;;;20.56;27.95
20628;BME280;10473;42.734;24.258;2023-11-19T09:25:35;91696.44;;;21.64;27.25
20628;BME280;10473;42.734;24.258;2023-11-19T09:28:03;91700.94;;;22.32;26.86
20628;BME280;10473;42.734;24.258;2023-11-19T09:30:31;91717.88;;;23.51;25.48
20628;BME280;10473;42.734;24.258;2023-11-19T09:33:01;91721.06;;;23.01;23.23
20628;BME280;10473;42.734;24.258;2023-11-19T09:35:29;91717.41;;;22.25;24.57
20628;BME280;10473;42.734;24.258;2023-11-19T09:37:56;91717.25;;;22.80;26.31
20628;BME280;10473;42.734;24.258;2023-11-19T09:40:25;91725.09;;;23.45;24.86
20628;BME280;10473;42.734;24.258;2023-11-19T09:42:54;91720.31;;;23.49;23.54
20628;BME280;10473;42.734;24.258;2023-11-19T09:45:26;91733.06;;;22.91;23.68
20628;BME280;10473;42.734;24.258;2023-11-19T09:47:55;91721.09;;;22.61;24.09
20628;BME280;10473;42.734;24.258;2023-11-19T09:50:25;91722.53;;;22.53;24.55
20628;BME280;10473;42.734;24.258;2023-11-19T09:52:53;91723.94;;;22.36;24.83
20628;BME280;10473;42.734;24.258;2023-11-19T09:55:21;91726.31;;;22.13;24.57
20628;BME280;10473;42.734;24.258;2023-11-19T09:57:49;91725.53;;;21.82;25.55
20628;BME280;10473;42.734;24.258;2023-11-19T10:00:21;91716.16;;;21.40;26.22
20628;BME280;10473;42.734;24.258;2023-11-19T10:02:49;91722.97;;;22.00;26.12
20628;BME280;10473;42.734;24.258;2023-11-19T10:05:19;91721.03;;;22.92;25.00
20628;BME280;10473;42.734;24.258;2023-11-19T10:07:49;91710.44;;;22.67;24.16
20628;BME280;10473;42.734;24.258;2023-11-19T10:10:17;91710.09;;;22.56;24.86
20628;BME280;10473;42.734;24.258;2023-11-19T10:12:45;91710.25;;;22.31;25.03
20628;BME280;10473;42.734;24.258;2023-11-19T10:15:19;91713.00;;;23.10;24.91
20628;BME280;10473;42.734;24.258;2023-11-19T10:17:47;91718.09;;;23.08;24.88
20628;BME280;10473;42.734;24.258;2023-11-19T10:20:15;91723.91;;;23.37;24.86
20628;BME280;10473;42.734;24.258;2023-11-19T10:22:43;91725.84;;;24.35;23.98
20628;BME280;10473;42.734;24.258;2023-11-19T10:25:24;91721.72;;;23.98;23.06
20628;BME280;10473;42.734;24.258;2023-11-19T10:27:52;91716.38;;;23.32;23.87
20628;BME280;10473;42.734;24.258;2023-11-19T10:30:21;91723.19;;;21.93;25.95
20628;BME280;10473;42.734;24.258;2023-11-19T10:33:03;91713.69;;;21.33;27.09
20628;BME280;10473;42.734;24.258;2023-11-19T10:35:32;91710.22;;;20.73;27.52
20628;BME280;10473;42.734;24.258;2023-11-19T10:38:00;91722.16;;;20.97;27.71
20628;BME280;10473;42.734;24.258;2023-11-19T10:40:39;91715.00;;;18.86;29.66
20628;BME280;10473;42.734;24.258;2023-11-19T10:43:07;91715.78;;;17.60;31.28
20628;BME280;10473;42.734;24.258;2023-11-19T10:45:35;91714.13;;;15.42;34.19
20628;BME280;10473;42.734;24.258;2023-11-19T11:02:30;91724.28;;;11.36;43.53
20628;BME280;10473;42.734;24.258;2023-11-19T11:05:03;91737.16;;;11.31;43.46
20628;BME280;10473;42.734;24.258;2023-11-19T11:07:32;91722.69;;;11.18;44.15
20628;BME280;10473;42.734;24.258;2023-11-19T11:10:01;91726.59;;;11.45;43.00
20628;BME280;10473;42.734;24.258;2023-11-19T11:12:31;91735.94;;;10.53;44.48
20628;BME280;10473;42.734;24.258;2023-11-19T11:15:01;91750.28;;;10.45;45.45
20628;BME280;10473;42.734;24.258;2023-11-19T11:17:33;91749.03;;;9.23;47.88
20628;BME280;10473;42.734;24.258;2023-11-19T11:20:01;91741.19;;;8.67;50.30
20628;BME280;10473;42.734;24.258;2023-11-19T11:22:34;91752.59;;;7.81;51.90
20628;BME280;10473;42.734;24.258;2023-11-19T11:25:24;91748.94;;;7.44;53.43
20628;BME280;10473;42.734;24.258;2023-11-19T11:28:09;91755.06;;;6.91;54.25
20628;BME280;10473;42.734;24.258;2023-11-19T11:30:49;91753.75;;;6.32;56.36
20628;BME280;10473;42.734;24.258;2023-11-19T11:33:34;91756.31;;;6.13;57.79
20628;BME280;10473;42.734;24.258;2023-11-19T11:36:13;91761.16;;;5.80;59.32
20628;BME280;10473;42.734;24.258;2023-11-19T11:38:48;91753.09;;;5.57;59.75
20628;BME280;10473;42.734;24.258;2023-11-19T11:41:20;91759.41;;;5.41;60.70
20628;BME280;10473;42.734;24.258;2023-11-19T11:43:49;91749.25;;;5.12;60.43
20628;BME280;10473;42.734;24.258;2023-11-19T11:46:54;91758.50;;;4.94;61.32
20628;BME280;10473;42.734;24.258;2023-11-19T11:49:27;91757.22;;;4.88;62.63
20628;BME280;10473;42.734;24.258;2023-11-19T11:52:02;91758.97;;;4.84;63.62
20628;BME280;10473;42.734;24.258;2023-11-19T11:54:34;91763.47;;;4.83;63.07
20628;BME280;10473;42.734;24.258;2023-11-19T11:57:09;91760.50;;;4.85;63.87
20628;BME280;10473;42.734;24.258;2023-11-19T11:59:48;91750.13;;;4.88;63.23
20628;BME280;10473;42.734;24.258;2023-11-19T12:02:17;91758.72;;;5.01;61.90
20628;BME280;10473;42.734;24.258;2023-11-19T12:04:49;91766.88;;;5.11;63.61
20628;BME280;10473;42.734;24.258;2023-11-19T12:07:19;91761.25;;;5.25;62.15
20628;BME280;10473;42.734;24.258;2023-11-19T12:09:50;91758.84;;;5.78;60.67
20628;BME280;10473;42.734;24.258;2023-11-19T12:12:21;91764.28;;;6.32;58.18
20628;BME280;10473;42.734;24.258;2023-11-19T12:15:06;91758.38;;;7.07;58.20
20628;BME280;10473;42.734;24.258;2023-11-19T12:17:49;91752.22;;;7.38;54.98
20628;BME280;10473;42.734;24.258;2023-11-19T12:20:19;91747.81;;;8.32;55.34
20628;BME280;10473;42.734;24.258;2023-11-19T12:22:48;91734.31;;;9.55;50.98
20628;BME280;10473;42.734;24.258;2023-11-19T12:25:16;91738.19;;;10.48;47.13
20628;BME280;10473;42.734;24.258;2023-11-19T12:27:46;91744.06;;;11.56;45.13
20628;BME280;10473;42.734;24.258;2023-11-19T12:30:17;91734.00;;;12.53;42.23
20628;BME280;10473;42.734;24.258;2023-11-19T12:32:45;91732.84;;;12.99;40.22
20628;BME280;10473;42.734;24.258;2023-11-19T12:35:13;91726.97;;;13.57;40.03
20628;BME280;10473;42.734;24.258;2023-11-19T12:37:44;91738.41;;;13.47;39.19
20628;BME280;10473;42.734;24.258;2023-11-19T12:40:15;91747.28;;;13.05;40.96
20628;BME280;10473;42.734;24.258;2023-11-19T12:42:44;91738.94;;;12.19;41.88
20628;BME280;10473;42.734;24.258;2023-11-19T12:45:12;91724.28;;;11.33;41.90
20628;BME280;10473;42.734;24.258;2023-11-19T12:47:40;91730.28;;;11.16;43.45
20628;BME280;10473;42.734;24.258;2023-11-19T12:50:09;91723.59;;;10.75;44.65
20628;BME280;10473;42.734;24.258;2023-11-19T12:52:37;91712.00;;;10.36;46.27
20628;BME280;10473;42.734;24.258;2023-11-19T12:55:26;91707.53;;;10.00;46.04
20628;BME280;10473;42.734;24.258;2023-11-19T12:57:54;91709.53;;;9.70;47.19
20628;BME280;10473;42.734;24.258;2023-11-19T13:00:22;91718.72;;;9.13;48.20
20628;BME280;10473;42.734;24.258;2023-11-19T13:02:52;91721.22;;;8.70;49.80
20628;BME280;10473;42.734;24.258;2023-11-19T13:05:24;91721.78;;;8.30;50.33
20628;BME280;10473;42.734;24.258;2023-11-19T13:07:58;91711.59;;;7.84;52.37
20628;BME280;10473;42.734;24.258;2023-11-19T13:10:28;91713.88;;;7.63;53.35
20628;BME280;10473;42.734;24.258;2023-11-19T13:13:01;91715.56;;;7.52;52.72
20628;BME280;10473;42.734;24.258;2023-11-19T13:15:29;91705.97;;;7.63;53.54
20628;BME280;10473;42.734;24.258;2023-11-19T13:17:56;91699.22;;;7.65;53.78
20628;BME280;10473;42.734;24.258;2023-11-19T13:20:24;91708.13;;;7.57;54.23
20628;BME280;10473;42.734;24.258;2023-11-19T13:22:56;91705.72;;;7.49;53.16
20628;BME280;10473;42.734;24.258;2023-11-19T13:25:24;91722.94;;;7.43;53.78
20628;BME280;10473;42.734;24.258;2023-11-19T13:27:53;91707.19;;;7.69;53.56
20628;BME280;10473;42.734;24.258;2023-11-19T13:30:21;91707.88;;;7.66;53.07
20628;BME280;10473;42.734;24.258;2023-11-19T13:32:49;91705.03;;;7.97;53.46
20628;BME280;10473;42.734;24.258;2023-11-19T13:35:18;91699.72;;;7.71;53.03
20628;BME280;10473;42.734;24.258;2023-11-19T13:37:45;91695.00;;;7.61;53.02
20628;BME280;10473;42.734;24.258;2023-11-19T13:40:13;91698.88;;;7.44;53.26
20628;BME280;10473;42.734;24.258;2023-11-19T13:42:42;91711.00;;;7.49;54.44
20628;BME280;10473;42.734;24.258;2023-11-19T13:45:12;91702.44;;;7.55;53.47
20628;BME280;10473;42.734;24.258;2023-11-19T13:47:42;91692.34;;;7.38;54.12
20628;BME280;10473;42.734;24.258;2023-11-19T13:50:10;91683.38;;;7.20;54.32
20628;BME280;10473;42.734;24.258;2023-11-19T13:52:38;91700.66;;;7.18;53.92
20628;BME280;10473;42.734;24.258;2023-11-19T13:55:07;91692.31;;;7.16;55.19
20628;BME280;10473;42.734;24.258;2023-11-19T13:57:35;91697.00;;;7.26;54.99
20628;BME280;10473;42.734;24.258;2023-11-19T14:00:05;91702.38;;;7.29;53.68
20628;BME280;10473;42.734;24.258;2023-11-19T14:02:39;91705.66;;;7.45;53.72
20628;BME280;10473;42.734;24.258;2023-11-19T14:05:07;91701.63;;;7.74;52.98
20628;BME280;10473;42.734;24.258;2023-11-19T14:07:35;91700.69;;;7.85;52.57
20628;BME280;10473;42.734;24.258;2023-11-19T14:10:03;91701.81;;;7.84;53.58
20628;BME280;10473;42.734;24.258;2023-11-19T14:12:31;91706.22;;;7.77;52.80
20628;BME280;10473;42.734;24.258;2023-11-19T14:14:59;91727.47;;;7.65;53.31
20628;BME280;10473;42.734;24.258;2023-11-19T14:17:28;91711.25;;;7.21;53.35
20628;BME280;10473;42.734;24.258;2023-11-19T14:19:57;91722.97;;;7.05;53.77
20628;BME280;10473;42.734;24.258;2023-11-19T14:22:25;91714.03;;;6.71;56.09
20628;BME280;10473;42.734;24.258;2023-11-19T14:24:53;91721.28;;;6.59;55.32
20628;BME280;10473;42.734;24.258;2023-11-19T14:27:21;91739.00;;;6.62;55.49
20628;BME280;10473;42.734;24.258;2023-11-19T14:29:49;91734.78;;;6.57;57.54
20628;BME280;10473;42.734;24.258;2023-11-19T14:32:18;91755.06;;;6.91;56.56
20628;BME280;10473;42.734;24.258;2023-11-19T14:34:46;91749.78;;;7.29;54.28
20628;BME280;10473;42.734;24.258;2023-11-19T14:37:15;91742.34;;;7.35;53.31
20628;BME280;10473;42.734;24.258;2023-11-19T14:39:42;91752.22;;;7.38;53.68
20628;BME280;10473;42.734;24.258;2023-11-19T14:42:10;91748.97;;;7.25;54.14
20628;BME280;10473;42.734;24.258;2023-11-19T14:44:43;91752.22;;;7.00;53.25
20628;BME280;10473;42.734;24.258;2023-11-19T14:47:14;91742.91;;;6.68;55.96
20628;BME280;10473;42.734;24.258;2023-11-19T14:49:42;91740.00;;;6.38;55.33
20628;BME280;10473;42.734;24.258;2023-11-19T14:52:10;91699.94;;;5.95;56.99
20628;BME280;10473;42.734;24.258;2023-11-19T14:54:39;91743.34;;;6.04;56.90
20628;BME280;10473;42.734;24.258;2023-11-19T14:57:07;91745.38;;;5.80;57.46
20628;BME280;10473;42.734;24.258;2023-11-19T14:59:35;91735.63;;;5.65;58.40
20628;BME280;10473;42.734;24.258;2023-11-19T15:02:03;91746.19;;;5.53;57.54
20628;BME280;10473;42.734;24.258;2023-11-19T15:04:31;91739.91;;;5.42;59.02
20628;BME280;10473;42.734;24.258;2023-11-19T15:07:00;91738.28;;;5.22;58.76
20628;BME280;10473;42.734;24.258;2023-11-19T15:09:28;91730.88;;;5.12;60.08
20628;BME280;10473;42.734;24.258;2023-11-19T15:11:57;91737.03;;;5.04;59.39
20628;BME280;10473;42.734;24.258;2023-11-19T15:14:25;91741.06;;;4.86;60.95
20628;BME280;10473;42.734;24.258;2023-11-19T15:16:53;91752.22;;;4.83;60.46
20628;BME280;10473;42.734;24.258;2023-11-19T15:19:21;91761.69;;;4.48;62.15
20628;BME280;10473;42.734;24.258;2023-11-19T15:21:48;91757.88;;;4.33;62.31
20628;BME280;10473;42.734;24.258;2023-11-19T15:24:17;91742.72;;;4.27;63.23
20628;BME280;10473;42.734;24.258;2023-11-19T15:26:45;91755.38;;;4.25;63.51
20628;BME280;10473;42.734;24.258;2023-11-19T15:29:14;91753.44;;;4.22;63.77
20628;BME280;10473;42.734;24.258;2023-11-19T15:31:41;91753.00;;;4.20;64.07
20628;BME280;10473;42.734;24.258;2023-11-19T15:34:09;91770.81;;;4.14;64.55
20628;BME280;10473;42.734;24.258;2023-11-19T15:36:37;91764.13;;;4.05;64.49
20628;BME280;10473;42.734;24.258;2023-11-19T15:39:05;91747.53;;;4.01;64.50
20628;BME280;10473;42.734;24.258;2023-11-19T15:41:33;91748.22;;;3.98;65.17
20628;BME280;10473;42.734;24.258;2023-11-19T15:44:02;91751.25;;;4.00;65.18
20628;BME280;10473;42.734;24.258;2023-11-19T15:46:32;91774.59;;;3.81;65.32
20628;BME280;10473;42.734;24.258;2023-11-19T15:49:08;91769.38;;;3.81;65.22
20628;BME280;10473;42.734;24.258;2023-11-19T15:52:04;91771.31;;;3.72;66.01
20628;BME280;10473;42.734;24.258;2023-11-19T15:54:32;91765.34;;;3.71;65.22
20628;BME280;10473;42.734;24.258;2023-11-19T15:57:00;91759.31;;;3.59;66.57
20628;BME280;10473;42.734;24.258;2023-11-19T15:59:28;91733.97;;;3.51;66.12
20628;BME280;10473;42.734;24.258;2023-11-19T16:01:58;91747.06;;;3.51;66.97
20628;BME280;10473;42.734;24.258;2023-11-19T16:04:27;91745.13;;;3.48;66.70
20628;BME280;10473;42.734;24.258;2023-11-19T16:06:55;91729.63;;;3.43;67.23
20628;BME280;10473;42.734;24.258;2023-11-19T16:09:23;91731.09;;;3.32;67.62
20628;BME280;10473;42.734;24.258;2023-11-19T16:11:53;91735.06;;;3.38;68.05
20628;BME280;10473;42.734;24.258;2023-11-19T16:14:21;91737.97;;;3.24;67.65
20628;BME280;10473;42.734;24.258;2023-11-19T16:16:49;91737.91;;;3.33;67.71
20628;BME280;10473;42.734;24.258;2023-11-19T16:19:18;91733.28;;;3.30;67.64
20628;BME280;10473;42.734;24.258;2023-11-19T16:21:46;91732.88;;;3.28;67.36
20628;BME280;10473;42.734;24.258;2023-11-19T16:24:15;91736.44;;;3.23;67.65
20628;BME280;10473;42.734;24.258;2023-11-19T16:26:43;91728.69;;;3.27;68.16
20628;BME280;10473;42.734;24.258;2023-11-19T16:29:11;91725.22;;;3.23;67.97
20628;BME280;10473;42.734;24.258;2023-11-19T16:31:38;91732.63;;;3.21;67.93
20628;BME280;10473;42.734;24.258;2023-11-19T16:34:09;91697.66;;;2.92;69.02
20628;BME280;10473;42.734;24.258;2023-11-19T16:36:38;91734.53;;;3.00;68.27
20628;BME280;10473;42.734;24.258;2023-11-19T16:39:05;91738.91;;;3.08;68.68
20628;BME280;10473;42.734;24.258;2023-11-19T16:41:34;91740.00;;;3.07;68.66
20628;BME280;10473;42.734;24.258;2023-11-19T16:44:05;91738.47;;;3.06;68.61
20628;BME280;10473;42.734;24.258;2023-11-19T16:46:33;91714.41;;;2.80;68.95
20628;BME280;10473;42.734;24.258;2023-11-19T16:49:02;91743.00;;;2.97;69.06
20628;BME280;10473;42.734;24.258;2023-11-19T16:51:30;91732.50;;;2.85;69.37
20628;BME280;10473;42.734;24.258;2023-11-19T16:53:59;91730.34;;;2.87;69.76
20628;BME280;10473;42.734;24.258;2023-11-19T16:56:28;91731.09;;;2.87;69.68
20628;BME280;10473;42.734;24.258;2023-11-19T16:58:58;91732.94;;;2.87;70.41
20628;BME280;10473;42.734;24.258;2023-11-19T17:01:26;91733.53;;;2.92;69.54
20628;BME280;10473;42.734;24.258;2023-11-19T17:03:54;91723.47;;;2.82;69.65
20628;BME280;10473;42.734;24.258;2023-11-19T17:06:21;91708.28;;;2.76;70.33
20628;BME280;10473;42.734;24.258;2023-11-19T17:08:49;91730.34;;;2.87;69.82
20628;BME280;10473;42.734;24.258;2023-11-19T17:11:19;91722.94;;;2.89;70.03
20628;BME280;10473;42.734;24.258;2023-11-19T17:13:47;91726.00;;;2.91;69.65
20628;BME280;10473;42.734;24.258;2023-11-19T17:16:15;91718.50;;;2.69;70.67
20628;BME280;10473;42.734;24.258;2023-11-19T17:18:43;91713.00;;;2.82;70.63
20628;BME280;10473;42.734;24.258;2023-11-19T17:21:11;91708.78;;;2.90;69.93
20628;BME280;10473;42.734;24.258;2023-11-19T17:23:39;91711.81;;;2.92;70.00
20628;BME280;10473;42.734;24.258;2023-11-19T17:26:07;91708.25;;;2.96;69.48
20628;BME280;10473;42.734;24.258;2023-11-19T17:28:36;91724.91;;;2.92;69.67
20628;BME280;10473;42.734;24.258;2023-11-19T17:31:04;91724.69;;;2.97;69.87
20628;BME280;10473;42.734;24.258;2023-11-19T17:33:32;91725.59;;;3.01;69.53
20628;BME280;10473;42.734;24.258;2023-11-19T17:36:00;91723.94;;;2.96;69.69
20628;BME280;10473;42.734;24.258;2023-11-19T17:38:28;91711.50;;;2.93;69.85
20628;BME280;10473;42.734;24.258;2023-11-19T17:40:56;91708.38;;;3.00;69.55
20628;BME280;10473;42.734;24.258;2023-11-19T17:43:23;91718.25;;;2.94;70.46
20628;BME280;10473;42.734;24.258;2023-11-19T17:45:52;91712.47;;;2.89;69.67
20628;BME280;10473;42.734;24.258;2023-11-19T17:48:25;91698.63;;;2.88;69.50
20628;BME280;10473;42.734;24.258;2023-11-19T17:50:53;91707.47;;;2.96;69.30
20628;BME280;10473;42.734;24.258;2023-11-19T17:53:23;91703.97;;;2.92;69.39
20628;BME280;10473;42.734;24.258;2023-11-19T17:55:50;91697.25;;;2.70;68.77
20628;BME280;10473;42.734;24.258;2023-11-19T17:58:18;91708.50;;;2.83;69.28
20628;BME280;10473;42.734;24.258;2023-11-19T18:00:49;91707.00;;;2.82;69.73
20628;BME280;10473;42.734;24.258;2023-11-19T18:03:21;91701.13;;;2.85;69.00
20628;BME280;10473;42.734;24.258;2023-11-19T18:05:50;91697.78;;;2.64;68.72
20628;BME280;10473;42.734;24.258;2023-11-19T18:08:19;91704.97;;;2.67;69.13
20628;BME280;10473;42.734;24.258;2023-11-19T18:10:49;91701.31;;;2.47;69.64
20628;BME280;10473;42.734;24.258;2023-11-19T18:13:17;91716.75;;;2.72;69.28
20628;BME280;10473;42.734;24.258;2023-11-19T18:15:45;91699.25;;;2.53;68.88
20628;BME280;10473;42.734;24.258;2023-11-19T18:18:12;91702.81;;;2.69;68.92
20628;BME280;10473;42.734;24.258;2023-11-19T18:20:41;91709.38;;;2.75;69.06
20628;BME280;10473;42.734;24.258;2023-11-19T18:23:09;91723.34;;;2.79;68.87
20628;BME280;10473;42.734;24.258;2023-11-19T18:25:37;91706.56;;;2.80;69.12
20628;BME280;10473;42.734;24.258;2023-11-19T18:28:04;91709.28;;;2.83;68.80
20628;BME280;10473;42.734;24.258;2023-11-19T18:30:32;91707.09;;;2.85;68.81
20628;BME280;10473;42.734;24.258;2023-11-19T18:33:00;91706.78;;;2.87;68.55
20628;BME280;10473;42.734;24.258;2023-11-19T18:35:28;91706.03;;;2.86;68.35
20628;BME280;10473;42.734;24.258;2023-11-19T18:37:57;91710.47;;;2.74;69.22
20628;BME280;10473;42.734;24.258;2023-11-19T18:40:24;91713.41;;;2.72;69.32
20628;BME280;10473;42.734;24.258;2023-11-19T18:42:52;91703.47;;;2.66;69.35
20628;BME280;10473;42.734;24.258;2023-11-19T18:45:20;91700.78;;;2.53;69.62
20628;BME280;10473;42.734;24.258;2023-11-19T18:47:48;91706.38;;;2.64;69.41
20628;BME280;10473;42.734;24.258;2023-11-19T18:50:16;91717.56;;;2.53;69.56
20628;BME280;10473;42.734;24.258;2023-11-19T18:52:44;91718.00;;;2.55;69.69
20628;BME280;10473;42.734;24.258;2023-11-19T18:55:13;91714.91;;;2.41;69.62
20628;BME280;10473;42.734;24.258;2023-11-19T18:57:41;91704.16;;;2.33;69.67
20628;BME280;10473;42.734;24.258;2023-11-19T19:00:10;91711.81;;;2.38;70.41
20628;BME280;10473;42.734;24.258;2023-11-19T19:02:38;91710.09;;;2.42;69.32
20628;BME280;10473;42.734;24.258;2023-11-19T19:05:07;91701.50;;;2.42;70.09
20628;BME280;10473;42.734;24.258;2023-11-19T19:07:35;91714.69;;;2.46;68.73
20628;BME280;10473;42.734;24.258;2023-11-19T19:10:03;91710.59;;;2.36;69.21
20628;BME280;10473;42.734;24.258;2023-11-19T19:12:32;91706.09;;;2.25;69.39
20628;BME280;10473;42.734;24.258;2023-11-19T19:15:02;91715.28;;;2.31;69.14
20628;BME280;10473;42.734;24.258;2023-11-19T19:17:30;91700.59;;;2.17;69.17
20628;BME280;10473;42.734;24.258;2023-11-19T19:19:58;91708.06;;;2.07;68.67
20628;BME280;10473;42.734;24.258;2023-11-19T19:22:26;91702.31;;;2.13;69.12
20628;BME280;10473;42.734;24.258;2023-11-19T19:24:53;91695.44;;;2.09;68.92
20628;BME280;10473;42.734;24.258;2023-11-19T19:27:22;91688.31;;;1.98;68.73
20628;BME280;10473;42.734;24.258;2023-11-19T19:29:51;91709.22;;;2.18;69.15
20628;BME280;10473;42.734;24.258;2023-11-19T19:32:19;91709.16;;;2.27;69.25
20628;BME280;10473;42.734;24.258;2023-11-19T19:34:47;91716.38;;;2.30;68.17
20628;BME280;10473;42.734;24.258;2023-11-19T19:37:14;91722.81;;;2.32;68.68
20628;BME280;10473;42.734;24.258;2023-11-19T19:39:42;91718.53;;;2.28;68.16
20628;BME280;10473;42.734;24.258;2023-11-19T19:42:10;91712.00;;;2.33;67.42
20628;BME280;10473;42.734;24.258;2023-11-19T19:44:38;91709.75;;;2.32;67.22
20628;BME280;10473;42.734;24.258;2023-11-19T19:47:07;91683.47;;;2.08;66.63
20628;BME280;10473;42.734;24.258;2023-11-19T19:49:37;91712.34;;;2.32;67.40
20628;BME280;10473;42.734;24.258;2023-11-19T19:52:05;91707.69;;;2.38;67.20
20628;BME280;10473;42.734;24.258;2023-11-19T19:54:34;91701.72;;;2.37;66.99
20628;BME280;10473;42.734;24.258;2023-11-19T19:57:02;91685.50;;;2.23;67.28
20628;BME280;10473;42.734;24.258;2023-11-19T19:59:30;91702.03;;;2.36;67.22
20628;BME280;10473;42.734;24.258;2023-11-19T20:01:59;91703.97;;;2.38;66.75
20628;BME280;10473;42.734;24.258;2023-11-19T20:04:29;91688.06;;;2.32;66.27
20628;BME280;10473;42.734;24.258;2023-11-19T20:06:57;91684.34;;;2.33;66.13
20628;BME280;10473;42.734;24.258;2023-11-19T20:09:24;91689.84;;;2.40;67.20
20628;BME280;10473;42.734;24.258;2023-11-19T20:11:52;91686.56;;;2.42;66.87
20628;BME280;10473;42.734;24.258;2023-11-19T20:14:19;91674.59;;;2.42;66.80
20628;BME280;10473;42.734;24.258;2023-11-19T20:16:49;91697.72;;;2.52;65.84
20628;BME280;10473;42.734;24.258;2023-11-19T20:19:17;91678.66;;;2.51;65.42
20628;BME280;10473;42.734;24.258;2023-11-19T20:21:46;91685.34;;;2.61;65.31
20628;BME280;10473;42.734;24.258;2023-11-19T20:24:14;91687.34;;;2.64;64.38
20628;BME280;10473;42.734;24.258;2023-11-19T20:26:41;91688.66;;;2.70;65.10
20628;BME280;10473;42.734;24.258;2023-11-19T20:29:09;91686.78;;;2.70;64.80
20628;BME280;10473;42.734;24.258;2023-11-19T20:31:39;91689.06;;;2.60;64.97
20628;BME280;10473;42.734;24.258;2023-11-19T20:34:07;91681.13;;;2.68;65.50
20628;BME280;10473;42.734;24.258;2023-11-19T20:36:35;91686.72;;;2.79;64.80
20628;BME280;10473;42.734;24.258;2023-11-19T20:39:04;91682.34;;;2.71;64.52
20628;BME280;10473;42.734;24.258;2023-11-19T20:41:32;91678.09;;;2.66;63.70
20628;BME280;10473;42.734;24.258;2023-11-19T20:44:00;91674.84;;;2.81;63.11
20628;BME280;10473;42.734;24.258;2023-11-19T20:46:27;91668.63;;;2.74;64.14
20628;BME280;10473;42.734;24.258;2023-11-19T20:48:55;91676.28;;;2.79;64.37
20628;BME280;10473;42.734;24.258;2023-11-19T20:51:23;91681.53;;;2.91;63.87
20628;BME280;10473;42.734;24.258;2023-11-19T20:53:50;91671.94;;;2.95;63.52
20628;BME280;10473;42.734;24.258;2023-11-19T20:56:20;91669.53;;;3.02;63.13
20628;BME280;10473;42.734;24.258;2023-11-19T20:58:47;91664.44;;;3.05;63.55
20628;BME280;10473;42.734;24.258;2023-11-19T21:01:15;91667.94;;;3.09;63.62
20628;BME280;10473;42.734;24.258;2023-11-19T21:03:44;91662.94;;;3.16;63.30
20628;BME280;10473;42.734;24.258;2023-11-19T21:06:13;91665.31;;;3.09;63.42
20628;BME280;10473;42.734;24.258;2023-11-19T21:08:42;91667.13;;;2.97;62.79
20628;BME280;10473;42.734;24.258;2023-11-19T21:11:10;91653.31;;;3.08;62.97
20628;BME280;10473;42.734;24.258;2023-11-19T21:13:39;91656.50;;;3.14;63.14
20628;BME280;10473;42.734;24.258;2023-11-19T21:16:07;91658.91;;;3.19;63.81
20628;BME280;10473;42.734;24.258;2023-11-19T21:18:36;91650.72;;;3.20;64.08
20628;BME280;10473;42.734;24.258;2023-11-19T21:21:04;91649.28;;;3.11;63.91
20628;BME280;10473;42.734;24.258;2023-11-19T21:23:32;91661.22;;;3.20;62.98
20628;BME280;10473;42.734;24.258;2023-11-19T21:25:59;91667.50;;;3.19;63.22
20628;BME280;10473;42.734;24.258;2023-11-19T21:28:27;91666.53;;;3.24;63.18